createdAt,value
2016-07-15T00:00:20.866Z,11.03
2016-07-15T00:01:20.864Z,11.03
2016-07-15T00:02:20.863Z,11.03
2016-07-15T00:03:20.856Z,11.03
2016-07-15T00:04:20.891Z,11.03
2016-07-15T00:05:20.834Z,11
2016-07-15T00:06:20.834Z,10.97
2016-07-15T00:07:20.814Z,11.03
2016-07-15T00:08:20.828Z,11.12
2016-07-15T00:09:20.823Z,11.15
2016-07-15T00:10:20.801Z,11.13
2016-07-15T00:11:20.811Z,11.06
2016-07-15T00:12:20.792Z,11.16
2016-07-15T00:13:21.548Z,11.08
2016-07-15T00:14:20.785Z,11.15
2016-07-15T00:15:20.766Z,11.09
2016-07-15T00:16:20.757Z,11.13
2016-07-15T00:17:20.755Z,11.1
2016-07-15T00:18:20.754Z,11.05
2016-07-15T00:19:20.750Z,11.12
2016-07-15T00:20:20.735Z,11.06
2016-07-15T00:21:20.722Z,11.1
2016-07-15T00:22:20.727Z,11.06
2016-07-15T00:23:20.722Z,11.16
2016-07-15T00:24:20.701Z,11.02
2016-07-15T00:25:20.713Z,11.12
2016-07-15T00:26:20.703Z,11.06
2016-07-15T00:27:20.707Z,11.05
2016-07-15T00:28:20.705Z,11.08
2016-07-15T00:29:20.680Z,11.08
2016-07-15T00:30:20.672Z,11.02
2016-07-15T00:31:20.660Z,11.06
2016-07-15T00:32:20.652Z,11.03
2016-07-15T00:33:20.658Z,11.03
2016-07-15T00:34:20.664Z,11.08
2016-07-15T00:35:20.635Z,11.13
2016-07-15T00:36:20.637Z,11.05
2016-07-15T00:37:20.613Z,11.03
2016-07-15T00:38:20.613Z,10.95
2016-07-15T00:39:20.601Z,10.98
2016-07-15T00:40:20.602Z,11
2016-07-15T00:41:20.584Z,10.98
2016-07-15T00:42:20.608Z,10.95
2016-07-15T00:43:20.566Z,10.88
2016-07-15T00:44:20.629Z,10.97
2016-07-15T00:45:20.571Z,10.87
2016-07-15T00:46:21.266Z,10.85
2016-07-15T00:47:21.329Z,10.92
2016-07-15T00:48:20.527Z,10.88
2016-07-15T00:49:20.536Z,10.84
2016-07-15T00:50:20.528Z,10.79
2016-07-15T00:51:20.523Z,10.7
2016-07-15T00:52:20.514Z,10.73
2016-07-15T00:53:20.506Z,10.77
2016-07-15T00:54:20.511Z,10.83
2016-07-15T00:55:20.500Z,10.7
2016-07-15T00:56:20.507Z,10.83
2016-07-15T00:57:20.475Z,10.76
2016-07-15T00:58:20.475Z,10.79
2016-07-15T00:59:20.471Z,10.84
2016-07-15T01:00:20.450Z,10.77
2016-07-15T01:01:20.472Z,10.79
2016-07-15T01:02:20.460Z,10.87
2016-07-15T01:03:20.450Z,10.75
2016-07-15T01:04:20.435Z,10.77
2016-07-15T01:05:21.234Z,10.9
2016-07-15T01:06:20.421Z,10.87
2016-07-15T01:07:20.415Z,10.79
2016-07-15T01:08:20.401Z,10.75
2016-07-15T01:09:20.418Z,10.75
2016-07-15T01:10:20.392Z,10.84
2016-07-15T01:11:20.390Z,10.76
2016-07-15T01:12:20.362Z,10.73
2016-07-15T01:13:20.374Z,10.79
2016-07-15T01:14:20.347Z,10.76
2016-07-15T01:15:20.352Z,10.83
2016-07-15T01:16:20.348Z,10.87
2016-07-15T01:17:20.346Z,10.8
2016-07-15T01:18:20.345Z,10.87
2016-07-15T01:19:20.332Z,10.77
2016-07-15T01:20:20.315Z,10.83
2016-07-15T01:21:20.312Z,10.77
2016-07-15T01:22:20.310Z,10.75
2016-07-15T01:23:20.303Z,10.77
2016-07-15T01:24:20.289Z,10.8
2016-07-15T01:25:20.286Z,10.88
2016-07-15T01:26:20.262Z,10.8
2016-07-15T01:27:20.274Z,10.75
2016-07-15T01:28:20.258Z,10.73
2016-07-15T01:29:20.247Z,10.72
2016-07-15T01:30:20.266Z,10.75
2016-07-15T01:31:20.244Z,10.77
2016-07-15T01:32:20.228Z,10.79
2016-07-15T01:33:20.217Z,10.77
2016-07-15T01:34:20.208Z,10.85
2016-07-15T01:35:20.212Z,10.88
2016-07-15T01:36:20.202Z,10.87
2016-07-15T01:37:20.195Z,10.92
2016-07-15T01:38:20.211Z,10.9
2016-07-15T01:39:20.168Z,10.91
2016-07-15T01:40:20.169Z,10.97
2016-07-15T01:41:20.162Z,10.92
2016-07-15T01:42:20.151Z,10.91
2016-07-15T01:43:20.148Z,10.84
2016-07-15T01:44:20.200Z,10.75
2016-07-15T01:45:20.132Z,10.8
2016-07-15T01:46:20.116Z,10.73
2016-07-15T01:47:20.111Z,10.77
2016-07-15T01:48:20.121Z,10.8
2016-07-15T01:49:20.105Z,10.8
2016-07-15T01:50:20.109Z,10.8
2016-07-15T01:51:20.104Z,10.83
2016-07-15T01:52:20.080Z,10.84
2016-07-15T01:53:20.785Z,10.8
2016-07-15T01:54:20.735Z,10.73
2016-07-15T01:55:20.278Z,10.88
2016-07-15T01:56:20.057Z,10.77
2016-07-15T01:57:20.052Z,10.84
2016-07-15T01:58:20.046Z,10.83
2016-07-15T01:59:20.047Z,10.83
2016-07-15T02:00:20.555Z,10.79
2016-07-15T02:01:20.018Z,10.79
2016-07-15T02:02:20.013Z,10.87
2016-07-15T02:03:20.018Z,10.87
2016-07-15T02:04:20.013Z,10.79
2016-07-15T02:05:19.999Z,10.88
2016-07-15T02:06:19.992Z,10.75
2016-07-15T02:07:19.961Z,10.75
2016-07-15T02:08:20.226Z,10.77
2016-07-15T02:09:19.952Z,10.9
2016-07-15T02:10:19.947Z,10.9
2016-07-15T02:11:19.949Z,10.84
2016-07-15T02:12:19.949Z,10.85
2016-07-15T02:13:19.939Z,10.87
2016-07-15T02:14:19.935Z,10.79
2016-07-15T02:15:19.903Z,10.91
2016-07-15T02:16:19.910Z,10.83
2016-07-15T02:17:19.909Z,10.9
2016-07-15T02:18:19.908Z,10.97
2016-07-15T02:19:19.877Z,10.8
2016-07-15T02:20:19.891Z,10.9
2016-07-15T02:21:19.886Z,10.77
2016-07-15T02:22:19.861Z,10.91
2016-07-15T02:23:19.855Z,10.9
2016-07-15T02:24:19.869Z,10.9
2016-07-15T02:25:19.843Z,10.84
2016-07-15T02:26:19.841Z,10.87
2016-07-15T02:27:19.826Z,10.94
2016-07-15T02:28:19.847Z,10.85
2016-07-15T02:29:19.809Z,10.92
2016-07-15T02:30:19.804Z,10.91
2016-07-15T02:31:19.804Z,10.92
2016-07-15T02:32:19.787Z,10.91
2016-07-15T02:33:19.786Z,10.94
2016-07-15T02:34:19.788Z,10.88
2016-07-15T02:35:19.775Z,10.88
2016-07-15T02:36:19.763Z,10.94
2016-07-15T02:37:20.480Z,10.88
2016-07-15T02:38:19.766Z,10.91
2016-07-15T02:39:19.749Z,10.9
2016-07-15T02:40:19.742Z,10.94
2016-07-15T02:41:19.721Z,10.94
2016-07-15T02:42:19.717Z,10.83
2016-07-15T02:43:19.716Z,10.94
2016-07-15T02:44:19.707Z,10.87
2016-07-15T02:45:19.709Z,10.88
2016-07-15T02:46:19.700Z,10.91
2016-07-15T02:47:19.691Z,10.97
2016-07-15T02:48:19.695Z,10.91
2016-07-15T02:49:19.671Z,10.92
2016-07-15T02:50:19.665Z,10.92
2016-07-15T02:51:19.648Z,10.91
2016-07-15T02:52:19.661Z,10.88
2016-07-15T02:53:19.636Z,10.88
2016-07-15T02:54:19.651Z,10.95
2016-07-15T02:55:19.618Z,10.87
2016-07-15T02:56:19.627Z,10.9
2016-07-15T02:57:19.620Z,10.84
2016-07-15T02:58:19.618Z,10.84
2016-07-15T02:59:19.609Z,10.85
2016-07-15T03:00:19.607Z,10.88
2016-07-15T03:01:19.591Z,10.88
2016-07-15T03:02:19.576Z,10.87
2016-07-15T03:03:20.280Z,10.88
2016-07-15T03:04:19.588Z,10.88
2016-07-15T03:05:19.554Z,10.9
2016-07-15T03:06:19.587Z,10.72
2016-07-15T03:07:20.267Z,10.79
2016-07-15T03:08:19.559Z,10.75
2016-07-15T03:09:19.529Z,10.79
2016-07-15T03:10:19.542Z,10.79
2016-07-15T03:11:19.521Z,10.84
2016-07-15T03:12:19.523Z,10.75
2016-07-15T03:13:19.489Z,10.85
2016-07-15T03:14:19.531Z,10.9
2016-07-15T03:15:19.495Z,10.87
2016-07-15T03:16:19.493Z,10.88
2016-07-15T03:17:19.483Z,10.92
2016-07-15T03:18:19.490Z,10.91
2016-07-15T03:19:19.506Z,10.92
2016-07-15T03:20:20.169Z,10.88
2016-07-15T03:21:19.444Z,10.88
2016-07-15T03:22:19.435Z,10.91
2016-07-15T03:23:19.415Z,10.9
2016-07-15T03:24:19.419Z,10.92
2016-07-15T03:25:19.405Z,10.92
2016-07-15T03:26:19.404Z,10.88
2016-07-15T03:27:19.394Z,10.92
2016-07-15T03:28:19.386Z,10.88
2016-07-15T03:29:19.386Z,10.94
2016-07-15T03:30:19.388Z,10.88
2016-07-15T03:31:19.359Z,10.91
2016-07-15T03:32:19.355Z,10.97
2016-07-15T03:33:19.355Z,10.97
2016-07-15T03:34:19.352Z,10.95
2016-07-15T03:35:19.328Z,10.9
2016-07-15T03:36:19.352Z,10.94
2016-07-15T03:37:19.333Z,10.95
2016-07-15T03:38:19.323Z,10.94
2016-07-15T03:39:19.307Z,10.9
2016-07-15T03:40:20.026Z,10.95
2016-07-15T03:41:20.006Z,11
2016-07-15T03:42:19.293Z,11.02
2016-07-15T03:43:19.296Z,11.02
2016-07-15T03:44:20.020Z,10.94
2016-07-15T03:45:19.268Z,11.02
2016-07-15T03:46:19.272Z,10.98
2016-07-15T03:47:19.254Z,11.08
2016-07-15T03:48:19.270Z,11
2016-07-15T03:49:19.257Z,11
2016-07-15T03:50:19.950Z,11.1
2016-07-15T03:51:19.245Z,11.02
2016-07-15T03:52:19.262Z,11.09
2016-07-15T03:53:19.263Z,11.09
2016-07-15T03:54:19.273Z,11.1
2016-07-15T03:55:19.277Z,11.02
2016-07-15T03:56:19.284Z,11.06
2016-07-15T03:57:19.200Z,11
2016-07-15T03:58:19.204Z,11.06
2016-07-15T03:59:19.214Z,10.98
2016-07-15T04:00:19.917Z,11.02
2016-07-15T04:01:19.220Z,11
2016-07-15T04:02:19.229Z,11.05
2016-07-15T04:03:19.231Z,11
2016-07-15T04:04:19.179Z,11.06
2016-07-15T04:05:19.192Z,11.12
2016-07-15T04:06:19.191Z,11.12
2016-07-15T04:07:19.205Z,11.08
2016-07-15T04:08:19.202Z,11.13
2016-07-15T04:09:20.564Z,11.03
2016-07-15T04:10:19.181Z,11.03
2016-07-15T04:11:19.189Z,11.02
2016-07-15T04:12:19.142Z,11.13
2016-07-15T04:13:19.149Z,11
2016-07-15T04:14:19.157Z,11.03
2016-07-15T04:15:19.161Z,11.06
2016-07-15T04:16:19.171Z,11.12
2016-07-15T04:17:19.167Z,11.03
2016-07-15T04:18:19.883Z,11.03
2016-07-15T04:19:19.192Z,11.03
2016-07-15T04:20:19.195Z,11
2016-07-15T04:21:19.211Z,11.13
2016-07-15T04:22:19.105Z,11.12
2016-07-15T04:23:19.129Z,11.06
2016-07-15T04:24:19.130Z,11.06
2016-07-15T04:25:19.125Z,11.12
2016-07-15T04:26:19.145Z,11.15
2016-07-15T04:27:19.143Z,11.13
2016-07-15T04:28:19.681Z,11.16
2016-07-15T04:29:19.172Z,11.2
2016-07-15T04:30:19.090Z,11.18
2016-07-15T04:31:19.114Z,11.15
2016-07-15T04:32:19.127Z,11.24
2016-07-15T04:33:19.110Z,11.16
2016-07-15T04:34:19.088Z,11.1
2016-07-15T04:35:19.103Z,11.1
2016-07-15T04:36:19.114Z,11.15
2016-07-15T04:37:19.118Z,11.1
2016-07-15T04:38:19.043Z,11.06
2016-07-15T04:39:19.060Z,11.09
2016-07-15T04:40:19.061Z,11.09
2016-07-15T04:41:19.131Z,11.1
2016-07-15T04:42:19.087Z,11.16
2016-07-15T04:43:19.085Z,11.12
2016-07-15T04:44:19.098Z,11.06
2016-07-15T04:45:19.114Z,11.08
2016-07-15T04:46:19.016Z,11.08
2016-07-15T04:47:19.003Z,11.08
2016-07-15T04:48:19.029Z,11.15
2016-07-15T04:49:19.031Z,11.12
2016-07-15T04:50:19.039Z,11.15
2016-07-15T04:51:19.535Z,11.1
2016-07-15T04:52:19.059Z,11.16
2016-07-15T04:53:19.059Z,11.12
2016-07-15T04:54:19.065Z,11.12
2016-07-15T04:55:19.076Z,11.12
2016-07-15T04:56:19.482Z,11.09
2016-07-15T04:57:19.057Z,11.16
2016-07-15T04:58:18.917Z,11.21
2016-07-15T04:59:19.002Z,11.18
2016-07-15T05:00:19.006Z,11.21
2016-07-15T05:01:19.065Z,11.21
2016-07-15T05:02:19.030Z,11.21
2016-07-15T05:03:18.895Z,11.23
2016-07-15T05:04:18.866Z,11.26
2016-07-15T05:05:18.869Z,11.26
2016-07-15T05:06:18.859Z,11.27
2016-07-15T05:07:18.863Z,11.3
2016-07-15T05:08:18.876Z,11.3
2016-07-15T05:09:18.880Z,11.31
2016-07-15T05:10:18.890Z,11.33
2016-07-15T05:11:18.872Z,11.34
2016-07-15T05:12:18.857Z,11.3
2016-07-15T05:13:19.571Z,11.3
2016-07-15T05:14:18.857Z,11.34
2016-07-15T05:15:18.858Z,11.39
2016-07-15T05:16:18.858Z,11.38
2016-07-15T05:17:18.856Z,11.33
2016-07-15T05:18:18.838Z,11.43
2016-07-15T05:19:18.834Z,11.35
2016-07-15T05:20:18.697Z,11.34
2016-07-15T05:21:19.314Z,11.39
2016-07-15T05:22:18.855Z,11.41
2016-07-15T05:23:18.826Z,11.33
2016-07-15T05:24:18.829Z,11.35
2016-07-15T05:25:18.674Z,11.31
2016-07-15T05:26:18.689Z,11.28
2016-07-15T05:27:18.681Z,11.28
2016-07-15T05:28:18.679Z,11.31
2016-07-15T05:29:18.664Z,11.3
2016-07-15T05:30:18.664Z,11.27
2016-07-15T05:31:18.664Z,11.35
2016-07-15T05:32:18.532Z,11.34
2016-07-15T05:33:18.517Z,11.39
2016-07-15T05:34:18.523Z,11.43
2016-07-15T05:35:18.521Z,11.49
2016-07-15T05:36:18.506Z,11.45
2016-07-15T05:37:18.506Z,11.39
2016-07-15T05:38:18.515Z,11.42
2016-07-15T05:39:18.481Z,11.38
2016-07-15T05:40:18.474Z,11.41
2016-07-15T05:41:18.476Z,11.46
2016-07-15T05:42:18.463Z,11.48
2016-07-15T05:43:18.463Z,11.48
2016-07-15T05:44:18.497Z,11.49
2016-07-15T05:45:18.447Z,11.48
2016-07-15T05:46:18.452Z,11.49
2016-07-15T05:47:18.433Z,11.49
2016-07-15T05:48:18.422Z,11.53
2016-07-15T05:49:18.412Z,11.6
2016-07-15T05:50:18.411Z,11.57
2016-07-15T05:51:18.399Z,11.53
2016-07-15T05:52:18.403Z,11.7
2016-07-15T05:53:18.397Z,11.73
2016-07-15T05:54:18.379Z,11.66
2016-07-15T05:55:19.080Z,11.75
2016-07-15T05:56:18.376Z,11.76
2016-07-15T05:57:18.359Z,11.75
2016-07-15T05:58:18.369Z,11.75
2016-07-15T05:59:18.361Z,11.79
2016-07-15T06:00:18.351Z,11.76
2016-07-15T06:01:18.350Z,11.82
2016-07-15T06:02:18.360Z,11.68
2016-07-15T06:03:18.331Z,11.68
2016-07-15T06:04:19.117Z,11.66
2016-07-15T06:05:18.320Z,11.7
2016-07-15T06:06:18.314Z,11.76
2016-07-15T06:07:18.315Z,11.81
2016-07-15T06:08:18.305Z,11.84
2016-07-15T06:09:18.284Z,11.82
2016-07-15T06:10:18.279Z,11.79
2016-07-15T06:11:18.299Z,11.84
2016-07-15T06:12:18.284Z,11.98
2016-07-15T06:13:18.262Z,11.98
2016-07-15T06:14:18.268Z,12.01
2016-07-15T06:15:18.258Z,12
2016-07-15T06:16:18.253Z,12.01
2016-07-15T06:17:18.248Z,12.03
2016-07-15T06:18:18.229Z,11.89
2016-07-15T06:19:18.232Z,11.78
2016-07-15T06:20:18.224Z,11.94
2016-07-15T06:21:18.224Z,11.82
2016-07-15T06:22:18.208Z,11.85
2016-07-15T06:23:18.204Z,11.81
2016-07-15T06:24:18.203Z,11.79
2016-07-15T06:25:18.185Z,11.89
2016-07-15T06:26:18.178Z,11.79
2016-07-15T06:27:18.172Z,11.84
2016-07-15T06:28:18.170Z,11.89
2016-07-15T06:29:18.164Z,11.88
2016-07-15T06:30:18.169Z,11.91
2016-07-15T06:31:18.157Z,11.98
2016-07-15T06:32:18.144Z,12
2016-07-15T06:33:18.139Z,11.94
2016-07-15T06:34:18.128Z,12.07
2016-07-15T06:35:18.125Z,12.05
2016-07-15T06:36:18.119Z,12.18
2016-07-15T06:37:18.112Z,12.37
2016-07-15T06:38:18.111Z,12.33
2016-07-15T06:39:18.103Z,12.4
2016-07-15T06:40:18.097Z,12.58
2016-07-15T06:41:18.102Z,12.61
2016-07-15T06:42:18.114Z,12.76
2016-07-15T06:43:18.069Z,12.76
2016-07-15T06:44:18.067Z,12.84
2016-07-15T06:45:18.062Z,12.88
2016-07-15T06:46:18.066Z,12.84
2016-07-15T06:47:18.066Z,12.86
2016-07-15T06:48:18.054Z,12.73
2016-07-15T06:49:18.032Z,12.65
2016-07-15T06:50:18.047Z,12.55
2016-07-15T06:51:18.027Z,12.53
2016-07-15T06:52:18.031Z,12.59
2016-07-15T06:53:18.015Z,12.58
2016-07-15T06:54:18.035Z,12.56
2016-07-15T06:55:18.014Z,12.65
2016-07-15T06:56:18.009Z,12.56
2016-07-15T06:57:17.997Z,12.61
2016-07-15T06:58:18.004Z,12.58
2016-07-15T06:59:17.982Z,12.4
2016-07-15T07:00:17.992Z,12.44
2016-07-15T07:01:17.968Z,12.41
2016-07-15T07:02:17.982Z,12.44
2016-07-15T07:03:17.971Z,12.38
2016-07-15T07:04:17.965Z,12.28
2016-07-15T07:05:17.940Z,12.29
2016-07-15T07:06:17.946Z,12.29
2016-07-15T07:07:17.942Z,12.34
2016-07-15T07:08:17.933Z,12.29
2016-07-15T07:09:17.924Z,12.29
2016-07-15T07:10:17.922Z,12.33
2016-07-15T07:11:18.153Z,12.33
2016-07-15T07:12:18.777Z,12.38
2016-07-15T07:13:17.914Z,12.23
2016-07-15T07:14:17.905Z,12.31
2016-07-15T07:15:17.885Z,12.28
2016-07-15T07:16:17.906Z,12.28
2016-07-15T07:17:17.888Z,12.36
2016-07-15T07:18:17.887Z,12.22
2016-07-15T07:19:17.869Z,12.25
2016-07-15T07:20:18.796Z,12.13
2016-07-15T07:21:17.852Z,12.22
2016-07-15T07:22:17.853Z,12.1
2016-07-15T07:23:17.845Z,12.16
2016-07-15T07:24:17.863Z,12.15
2016-07-15T07:25:17.840Z,12.22
2016-07-15T07:26:17.825Z,12.2
2016-07-15T07:27:18.573Z,12.19
2016-07-15T07:28:17.831Z,12.22
2016-07-15T07:29:17.819Z,12.2
2016-07-15T07:30:17.829Z,12.26
2016-07-15T07:31:17.794Z,12.26
2016-07-15T07:32:17.795Z,12.31
2016-07-15T07:33:17.795Z,12.26
2016-07-15T07:34:17.796Z,12.31
2016-07-15T07:35:17.777Z,12.36
2016-07-15T07:36:17.768Z,12.29
2016-07-15T07:37:17.761Z,12.29
2016-07-15T07:38:17.767Z,12.36
2016-07-15T07:39:17.761Z,12.37
2016-07-15T07:40:17.753Z,12.44
2016-07-15T07:41:17.744Z,12.43
2016-07-15T07:42:17.738Z,12.4
2016-07-15T07:43:17.750Z,12.4
2016-07-15T07:44:17.744Z,12.4
2016-07-15T07:45:17.744Z,12.4
2016-07-15T07:46:17.725Z,12.28
2016-07-15T07:47:17.709Z,12.33
2016-07-15T07:48:17.712Z,12.31
2016-07-15T07:49:17.705Z,12.31
2016-07-15T07:50:17.709Z,12.29
2016-07-15T07:51:17.687Z,12.29
2016-07-15T07:52:17.697Z,12.34
2016-07-15T07:53:17.687Z,12.34
2016-07-15T07:54:17.683Z,12.2
2016-07-15T07:55:17.661Z,12.18
2016-07-15T07:56:17.868Z,12.03
2016-07-15T07:57:17.659Z,12.04
2016-07-15T07:58:17.643Z,12.05
2016-07-15T07:59:17.641Z,12.04
2016-07-15T08:00:17.622Z,12
2016-07-15T08:01:17.623Z,12.05
2016-07-15T08:02:17.629Z,12.01
2016-07-15T08:03:17.623Z,12.01
2016-07-15T08:04:17.622Z,12.1
2016-07-15T08:05:17.611Z,11.98
2016-07-15T08:06:17.591Z,12.2
2016-07-15T08:07:17.595Z,12.13
2016-07-15T08:08:17.575Z,12.22
2016-07-15T08:09:17.584Z,12.2
2016-07-15T08:10:17.564Z,12.19
2016-07-15T08:11:17.562Z,12.23
2016-07-15T08:12:17.557Z,12.19
2016-07-15T08:13:17.559Z,12.23
2016-07-15T08:14:17.549Z,12.26
2016-07-15T08:15:17.551Z,12.2
2016-07-15T08:16:17.537Z,12.25
2016-07-15T08:17:18.246Z,12.28
2016-07-15T08:18:17.527Z,12.37
2016-07-15T08:19:17.529Z,12.22
2016-07-15T08:20:17.516Z,12.33
2016-07-15T08:21:17.509Z,12.26
2016-07-15T08:22:17.506Z,12.34
2016-07-15T08:23:17.520Z,12.31
2016-07-15T08:24:18.204Z,12.44
2016-07-15T08:25:17.487Z,12.51
2016-07-15T08:26:17.485Z,12.59
2016-07-15T08:27:17.476Z,12.63
2016-07-15T08:28:17.483Z,12.71
2016-07-15T08:29:17.459Z,12.78
2016-07-15T08:30:17.453Z,12.84
2016-07-15T08:31:17.450Z,13.09
2016-07-15T08:32:17.444Z,13.25
2016-07-15T08:33:17.442Z,13.35
2016-07-15T08:34:17.432Z,13.37
2016-07-15T08:35:18.146Z,13.47
2016-07-15T08:36:17.417Z,13.58
2016-07-15T08:37:17.415Z,13.63
2016-07-15T08:38:17.405Z,13.7
2016-07-15T08:39:17.411Z,13.7
2016-07-15T08:40:17.395Z,13.63
2016-07-15T08:41:17.394Z,13.55
2016-07-15T08:42:17.401Z,13.53
2016-07-15T08:43:17.387Z,13.53
2016-07-15T08:44:17.382Z,13.68
2016-07-15T08:45:17.375Z,13.62
2016-07-15T08:46:17.373Z,13.7
2016-07-15T08:47:17.375Z,13.69
2016-07-15T08:48:17.367Z,13.79
2016-07-15T08:49:17.356Z,13.78
2016-07-15T08:50:17.354Z,13.83
2016-07-15T08:51:17.357Z,13.69
2016-07-15T08:52:17.350Z,13.73
2016-07-15T08:53:17.343Z,13.6
2016-07-15T08:54:17.331Z,13.48
2016-07-15T08:55:17.319Z,13.42
2016-07-15T08:56:17.320Z,13.53
2016-07-15T08:57:17.319Z,13.42
2016-07-15T08:58:17.322Z,13.39
2016-07-15T08:59:17.327Z,13.32
2016-07-15T09:00:17.306Z,13.2
2016-07-15T09:01:17.287Z,13.24
2016-07-15T09:02:17.294Z,13.2
2016-07-15T09:03:17.301Z,13.29
2016-07-15T09:04:17.294Z,13.21
2016-07-15T09:05:17.276Z,13.28
2016-07-15T09:06:17.273Z,13.24
2016-07-15T09:07:17.271Z,13.29
2016-07-15T09:08:17.263Z,13.29
2016-07-15T09:09:17.264Z,13.4
2016-07-15T09:10:17.255Z,13.45
2016-07-15T09:11:17.257Z,13.51
2016-07-15T09:12:17.244Z,13.57
2016-07-15T09:13:17.244Z,13.73
2016-07-15T09:14:17.247Z,13.69
2016-07-15T09:15:17.226Z,13.68
2016-07-15T09:16:17.222Z,13.72
2016-07-15T09:17:17.220Z,13.72
2016-07-15T09:18:17.224Z,13.69
2016-07-15T09:19:17.214Z,13.69
2016-07-15T09:20:17.195Z,13.7
2016-07-15T09:21:17.198Z,13.72
2016-07-15T09:22:17.194Z,13.73
2016-07-15T09:23:17.184Z,13.76
2016-07-15T09:24:17.175Z,13.75
2016-07-15T09:25:17.187Z,13.68
2016-07-15T09:26:17.181Z,13.72
2016-07-15T09:27:17.168Z,13.69
2016-07-15T09:28:17.157Z,13.68
2016-07-15T09:29:17.169Z,13.66
2016-07-15T09:30:17.154Z,13.79
2016-07-15T09:31:17.155Z,13.83
2016-07-15T09:32:17.138Z,13.9
2016-07-15T09:33:17.142Z,14.03
2016-07-15T09:34:17.135Z,14.21
2016-07-15T09:35:17.128Z,14.3
2016-07-15T09:36:17.128Z,14.34
2016-07-15T09:37:17.135Z,14.42
2016-07-15T09:38:17.110Z,14.44
2016-07-15T09:39:17.119Z,14.31
2016-07-15T09:40:17.104Z,14.09
2016-07-15T09:41:17.107Z,14.06
2016-07-15T09:42:17.128Z,14.01
2016-07-15T09:43:17.108Z,14.01
2016-07-15T09:44:17.088Z,13.97
2016-07-15T09:45:17.095Z,14.01
2016-07-15T09:46:17.091Z,14.05
2016-07-15T09:47:17.079Z,14.2
2016-07-15T09:48:17.078Z,14.3
2016-07-15T09:49:17.066Z,14.38
2016-07-15T09:50:17.061Z,14.42
2016-07-15T09:51:17.069Z,14.63
2016-07-15T09:52:17.063Z,14.7
2016-07-15T09:53:17.062Z,14.82
2016-07-15T09:54:17.047Z,14.85
2016-07-15T09:55:17.053Z,14.87
2016-07-15T09:56:17.061Z,14.97
2016-07-15T09:57:17.038Z,15.02
2016-07-15T09:58:17.037Z,15.05
2016-07-15T09:59:17.037Z,15.01
2016-07-15T10:00:17.032Z,15.1
2016-07-15T10:01:17.018Z,15.26
2016-07-15T10:02:18.131Z,15.33
2016-07-15T10:03:17.028Z,15.37
2016-07-15T10:04:17.007Z,15.4
2016-07-15T10:05:17.019Z,15.44
2016-07-15T10:06:17.002Z,15.49
2016-07-15T10:07:17.005Z,15.56
2016-07-15T10:08:17.002Z,15.62
2016-07-15T10:09:17.009Z,15.51
2016-07-15T10:10:16.987Z,15.44
2016-07-15T10:11:17.010Z,15.34
2016-07-15T10:12:16.979Z,15.19
2016-07-15T10:13:16.989Z,15.12
2016-07-15T10:14:16.973Z,15.02
2016-07-15T10:15:16.974Z,15.05
2016-07-15T10:16:16.962Z,15.08
2016-07-15T10:17:17.003Z,15.04
2016-07-15T10:18:16.973Z,15.05
2016-07-15T10:19:16.966Z,15.01
2016-07-15T10:20:16.964Z,15.05
2016-07-15T10:21:16.952Z,15.07
2016-07-15T10:22:16.954Z,15.02
2016-07-15T10:23:17.652Z,14.98
2016-07-15T10:24:16.946Z,14.7
2016-07-15T10:25:16.949Z,14.67
2016-07-15T10:26:16.933Z,14.49
2016-07-15T10:27:16.943Z,14.3
2016-07-15T10:28:16.937Z,14.09
2016-07-15T10:29:16.911Z,13.99
2016-07-15T10:30:16.950Z,14.01
2016-07-15T10:31:16.911Z,13.88
2016-07-15T10:32:16.921Z,13.94
2016-07-15T10:33:17.691Z,13.83
2016-07-15T10:34:16.917Z,13.87
2016-07-15T10:35:16.897Z,13.93
2016-07-15T10:36:16.904Z,13.95
2016-07-15T10:37:16.902Z,14.11
2016-07-15T10:38:16.970Z,14.19
2016-07-15T10:39:16.895Z,14.3
2016-07-15T10:40:16.878Z,14.33
2016-07-15T10:42:16.886Z,14.61
2016-07-15T10:43:16.870Z,14.63
2016-07-15T10:53:16.988Z,15.52
2016-07-15T10:54:16.851Z,15.52
2016-07-15T10:55:16.846Z,15.4
2016-07-15T10:56:17.087Z,15.41
2016-07-15T10:57:17.710Z,15.41
2016-07-15T10:58:17.796Z,15.41
2016-07-15T10:59:18.127Z,15.47
2016-07-15T11:00:17.683Z,15.47
2016-07-15T11:01:17.919Z,15.43
2016-07-15T11:02:18.542Z,15.53
2016-07-15T11:03:18.520Z,15.56
2016-07-15T11:04:19.578Z,15.62
2016-07-15T11:05:17.982Z,15.7
2016-07-15T11:06:17.623Z,15.7
2016-07-15T11:07:17.857Z,15.74
2016-07-15T11:08:17.748Z,15.73
2016-07-15T11:09:17.716Z,15.84
2016-07-15T11:10:17.804Z,15.86
2016-07-15T11:11:18.810Z,15.89
2016-07-15T11:12:18.465Z,15.92
2016-07-15T11:13:17.782Z,15.71
2016-07-15T11:14:18.563Z,15.73
2016-07-15T11:15:18.570Z,15.58
2016-07-15T11:16:18.425Z,15.53
2016-07-15T11:18:17.886Z,15.49
2016-07-15T11:19:18.151Z,15.4
2016-07-15T11:20:18.717Z,15.33
2016-07-15T11:21:18.011Z,15.23
2016-07-15T11:22:18.864Z,15.16
2016-07-15T11:23:18.310Z,15.25
2016-07-15T11:24:18.145Z,15.23
2016-07-15T11:25:19.119Z,15.35
2016-07-15T11:27:18.037Z,15.4
2016-07-15T11:28:17.632Z,15.47
2016-07-15T11:29:18.005Z,15.59
2016-07-15T11:30:17.654Z,15.68
2016-07-15T11:31:17.395Z,15.77
2016-07-15T11:32:17.613Z,15.73
2016-07-15T11:33:18.237Z,15.75
2016-07-15T11:34:19.482Z,15.89
2016-07-15T11:35:18.499Z,15.74
2016-07-15T11:36:18.394Z,15.71
2016-07-15T11:37:18.412Z,15.6
2016-07-15T11:38:18.265Z,15.53
2016-07-15T11:39:19.125Z,15.52
2016-07-15T11:40:17.704Z,15.53
2016-07-15T11:41:17.957Z,15.44
2016-07-15T11:42:17.711Z,15.38
2016-07-15T11:43:18.194Z,15.31
2016-07-15T11:44:18.177Z,15.27
2016-07-15T11:45:18.197Z,15.23
2016-07-15T11:46:18.336Z,15.12
2016-07-15T11:47:18.539Z,15.22
2016-07-15T11:48:18.593Z,15.25
2016-07-15T11:49:18.666Z,15.31
2016-07-15T11:50:18.379Z,15.38
2016-07-15T11:51:17.684Z,15.34
2016-07-15T11:52:18.288Z,15.41
2016-07-15T11:53:18.262Z,15.53
2016-07-15T11:54:19.093Z,15.63
2016-07-15T11:55:17.671Z,15.86
2016-07-15T11:56:17.613Z,16.04
2016-07-15T11:57:17.955Z,16.27
2016-07-15T11:58:18.617Z,16.3
2016-07-15T11:59:18.224Z,16.36
2016-07-15T12:00:17.718Z,16.45
2016-07-15T12:01:18.164Z,16.48
2016-07-15T12:02:17.906Z,16.54
2016-07-15T12:03:18.376Z,16.57
2016-07-15T12:04:18.209Z,16.48
2016-07-15T12:05:18.189Z,16.47
2016-07-15T12:06:18.192Z,16.51
2016-07-15T12:07:17.960Z,16.4
2016-07-15T12:08:17.971Z,16.3
2016-07-15T12:09:19.049Z,16.3
2016-07-15T12:10:18.202Z,16.1
2016-07-15T12:11:18.368Z,15.88
2016-07-15T12:12:18.648Z,15.73
2016-07-15T12:13:17.721Z,15.53
2016-07-15T12:14:17.611Z,15.37
2016-07-15T12:15:18.222Z,15.27
2016-07-15T12:16:19.181Z,15.15
2016-07-15T12:17:17.929Z,15.08
2016-07-15T12:18:19.081Z,14.89
2016-07-15T12:19:18.818Z,14.69
2016-07-15T12:20:17.662Z,14.63
2016-07-15T12:21:17.859Z,14.48
2016-07-15T12:22:18.400Z,14.51
2016-07-15T12:23:18.360Z,14.33
2016-07-15T12:24:18.287Z,14.44
2016-07-15T12:25:17.606Z,14.24
2016-07-15T12:27:18.553Z,14.33
2016-07-15T12:28:18.319Z,14.33
2016-07-15T12:29:17.961Z,14.26
2016-07-15T12:30:18.202Z,14.34
2016-07-15T12:31:17.955Z,14.38
2016-07-15T12:32:18.064Z,14.49
2016-07-15T12:33:18.274Z,14.46
2016-07-15T12:34:19.244Z,14.48
2016-07-15T12:35:19.087Z,14.75
2016-07-15T12:36:19.061Z,14.82
2016-07-15T12:37:19.015Z,15.04
2016-07-15T12:39:17.638Z,15.33
2016-07-15T12:41:17.681Z,15.7
2016-07-15T12:42:17.235Z,15.7
2016-07-15T12:43:17.824Z,15.96
2016-07-15T12:44:17.425Z,16.02
2016-07-15T12:45:18.042Z,16.1
2016-07-15T12:46:17.526Z,16.18
2016-07-15T12:47:16.547Z,16.21
2016-07-15T12:48:16.456Z,16.11
2016-07-15T12:49:16.464Z,16.18
2016-07-15T12:50:16.480Z,16.07
2016-07-15T12:51:16.466Z,15.93
2016-07-15T12:52:16.467Z,15.91
2016-07-15T12:53:16.455Z,15.86
2016-07-15T12:54:16.458Z,15.92
2016-07-15T12:55:16.464Z,15.96
2016-07-15T12:56:16.456Z,16.14
2016-07-15T12:57:16.454Z,16.07
2016-07-15T12:58:16.436Z,16.04
2016-07-15T12:59:16.446Z,16
2016-07-15T13:00:16.445Z,15.89
2016-07-15T13:01:16.443Z,15.74
2016-07-15T13:02:16.451Z,15.53
2016-07-15T13:03:16.424Z,15.41
2016-07-15T13:04:16.458Z,15.38
2016-07-15T13:05:16.451Z,15.18
2016-07-15T13:06:16.443Z,15.1
2016-07-15T13:07:16.425Z,15.02
2016-07-15T13:08:16.400Z,15
2016-07-15T13:09:16.394Z,14.89
2016-07-15T13:10:16.412Z,14.86
2016-07-15T13:11:16.407Z,14.83
2016-07-15T13:12:16.396Z,14.74